Nikishka, Alaska
Current Conditions -  °F | °C
As of 9:53 PM on Saturday 25 Oct 2014 (Local Time) from PAEN Reporting Station
Clear Clear  
Wind Chill: -8°   Ceiling: Unl
Heat Index: -4°   Visibility: 10mi
Dew Point: -6°   Wind: 5mph
Humidity: 88%   Direction: 90°E
Pressure: 29.82"   Gusts: NA
Location:  60.7377°N, 151.324°W
Report Text: PAEN 260553Z AUTO 09004KT 10SM CLR M04/M06 A2982 RMK AO2 SLP103 T10441061 10033 21050 56002 TSNO
Loading
Personal Weather Stations






























Interactive Weather Map
Tropical Storm Tracking
New forecast layout! Learn more

10-Day Weather Forecast

Advertisements
Track Severe Weather on mobile